sensor_id;sensor_type;location;lat;lon;timestamp;P1;durP1;ratioP1;P2;durP2;ratioP2
20251;SDS011;10284;58.364;15.550;2022-09-21T00:01:12;2.80;;;1.30;;
20251;SDS011;10284;58.364;15.550;2022-09-21T00:03:40;1.30;;;1.20;;
20251;SDS011;10284;58.364;15.550;2022-09-21T00:06:07;3.70;;;1.35;;
20251;SDS011;10284;58.364;15.550;2022-09-21T00:08:34;1.50;;;1.25;;
20251;SDS011;10284;58.364;15.550;2022-09-21T00:11:00;1.77;;;1.20;;
20251;SDS011;10284;58.364;15.550;2022-09-21T00:13:26;1.50;;;1.27;;
20251;SDS011;10284;58.364;15.550;2022-09-21T00:15:52;1.65;;;1.20;;
20251;SDS011;10284;58.364;15.550;2022-09-21T00:18:21;3.25;;;1.35;;
20251;SDS011;10284;58.364;15.550;2022-09-21T00:20:47;2.28;;;1.13;;
20251;SDS011;10284;58.364;15.550;2022-09-21T00:23:13;2.97;;;1.48;;
20251;SDS011;10284;58.364;15.550;2022-09-21T00:25:38;1.92;;;1.20;;
20251;SDS011;10284;58.364;15.550;2022-09-21T00:28:04;2.28;;;1.38;;
20251;SDS011;10284;58.364;15.550;2022-09-21T00:30:29;4.05;;;1.30;;
20251;SDS011;10284;58.364;15.550;2022-09-21T00:32:55;3.90;;;1.40;;
20251;SDS011;10284;58.364;15.550;2022-09-21T00:35:20;2.92;;;1.10;;
20251;SDS011;10284;58.364;15.550;2022-09-21T00:37:46;1.55;;;1.30;;
20251;SDS011;10284;58.364;15.550;2022-09-21T00:40:11;1.33;;;1.23;;
20251;SDS011;10284;58.364;15.550;2022-09-21T00:42:37;3.53;;;2.03;;
20251;SDS011;10284;58.364;15.550;2022-09-21T00:45:02;1.67;;;1.10;;
20251;SDS011;10284;58.364;15.550;2022-09-21T00:47:33;1.38;;;1.27;;
20251;SDS011;10284;58.364;15.550;2022-09-21T00:50:03;1.60;;;1.27;;
20251;SDS011;10284;58.364;15.550;2022-09-21T00:52:32;1.50;;;1.20;;
20251;SDS011;10284;58.364;15.550;2022-09-21T00:55:02;2.78;;;1.40;;
20251;SDS011;10284;58.364;15.550;2022-09-21T00:57:30;2.10;;;1.20;;
20251;SDS011;10284;58.364;15.550;2022-09-21T00:59:56;4.65;;;1.45;;
20251;SDS011;10284;58.364;15.550;2022-09-21T01:02:25;3.28;;;1.05;;
20251;SDS011;10284;58.364;15.550;2022-09-21T01:04:54;1.70;;;1.60;;
20251;SDS011;10284;58.364;15.550;2022-09-21T01:07:22;4.38;;;1.90;;
20251;SDS011;10284;58.364;15.550;2022-09-21T01:09:52;2.53;;;1.20;;
20251;SDS011;10284;58.364;15.550;2022-09-21T01:18:32;2.22;;;1.77;;
20251;SDS011;10284;58.364;15.550;2022-09-21T01:31:47;1.77;;;1.50;;
20251;SDS011;10284;58.364;15.550;2022-09-21T01:34:21;1.52;;;1.42;;
20251;SDS011;10284;58.364;15.550;2022-09-21T01:36:50;1.60;;;1.50;;
20251;SDS011;10284;58.364;15.550;2022-09-21T01:39:17;5.20;;;1.77;;
20251;SDS011;10284;58.364;15.550;2022-09-21T01:41:44;1.05;;;1.05;;
20251;SDS011;10284;58.364;15.550;2022-09-21T01:44:12;3.42;;;1.40;;
20251;SDS011;10284;58.364;15.550;2022-09-21T01:46:39;1.58;;;1.38;;
20251;SDS011;10284;58.364;15.550;2022-09-21T01:49:08;2.92;;;1.10;;
20251;SDS011;10284;58.364;15.550;2022-09-21T01:51:41;2.28;;;1.40;;
20251;SDS011;10284;58.364;15.550;2022-09-21T01:54:11;3.30;;;1.13;;
20251;SDS011;10284;58.364;15.550;2022-09-21T01:56:42;2.28;;;1.30;;
20251;SDS011;10284;58.364;15.550;2022-09-21T02:01:48;4.03;;;1.23;;
20251;SDS011;10284;58.364;15.550;2022-09-21T02:04:17;3.35;;;1.30;;
20251;SDS011;10284;58.364;15.550;2022-09-21T02:06:43;2.47;;;1.20;;
20251;SDS011;10284;58.364;15.550;2022-09-21T02:09:10;3.05;;;1.33;;
20251;SDS011;10284;58.364;15.550;2022-09-21T02:11:36;3.50;;;1.25;;
20251;SDS011;10284;58.364;15.550;2022-09-21T02:14:02;1.02;;;1.00;;
20251;SDS011;10284;58.364;15.550;2022-09-21T02:16:40;4.43;;;1.40;;
20251;SDS011;10284;58.364;15.550;2022-09-21T02:19:25;1.77;;;1.30;;
20251;SDS011;10284;58.364;15.550;2022-09-21T02:24:24;4.93;;;1.23;;
20251;SDS011;10284;58.364;15.550;2022-09-21T02:35:05;4.07;;;1.08;;
20251;SDS011;10284;58.364;15.550;2022-09-21T02:37:43;1.25;;;1.10;;
20251;SDS011;10284;58.364;15.550;2022-09-21T02:40:32;13.43;;;4.03;;
20251;SDS011;10284;58.364;15.550;2022-09-21T02:43:02;2.03;;;1.10;;
20251;SDS011;10284;58.364;15.550;2022-09-21T02:45:32;1.63;;;1.02;;
20251;SDS011;10284;58.364;15.550;2022-09-21T02:48:06;1.55;;;1.02;;
20251;SDS011;10284;58.364;15.550;2022-09-21T02:53:17;2.08;;;1.00;;
20251;SDS011;10284;58.364;15.550;2022-09-21T02:55:44;1.02;;;1.00;;
20251;SDS011;10284;58.364;15.550;2022-09-21T02:58:11;4.95;;;1.00;;
20251;SDS011;10284;58.364;15.550;2022-09-21T03:00:38;1.65;;;1.05;;
20251;SDS011;10284;58.364;15.550;2022-09-21T03:03:14;0.85;;;0.82;;
20251;SDS011;10284;58.364;15.550;2022-09-21T03:05:45;2.40;;;0.80;;
20251;SDS011;10284;58.364;15.550;2022-09-21T03:08:13;2.03;;;0.90;;
20251;SDS011;10284;58.364;15.550;2022-09-21T03:10:38;2.40;;;1.15;;
20251;SDS011;10284;58.364;15.550;2022-09-21T03:13:05;0.82;;;0.80;;
20251;SDS011;10284;58.364;15.550;2022-09-21T03:15:33;1.50;;;0.95;;
20251;SDS011;10284;58.364;15.550;2022-09-21T03:17:59;2.10;;;1.10;;
20251;SDS011;10284;58.364;15.550;2022-09-21T03:20:24;1.17;;;1.00;;
20251;SDS011;10284;58.364;15.550;2022-09-21T03:22:50;2.03;;;1.00;;
20251;SDS011;10284;58.364;15.550;2022-09-21T03:25:15;0.90;;;0.90;;
20251;SDS011;10284;58.364;15.550;2022-09-21T03:27:41;3.75;;;1.20;;
20251;SDS011;10284;58.364;15.550;2022-09-21T03:30:06;1.15;;;1.00;;
20251;SDS011;10284;58.364;15.550;2022-09-21T03:32:32;1.10;;;1.00;;
20251;SDS011;10284;58.364;15.550;2022-09-21T03:34:58;1.02;;;0.90;;
20251;SDS011;10284;58.364;15.550;2022-09-21T03:37:23;2.67;;;0.93;;
20251;SDS011;10284;58.364;15.550;2022-09-21T03:39:49;1.10;;;0.95;;
20251;SDS011;10284;58.364;15.550;2022-09-21T03:42:14;9.38;;;1.10;;
20251;SDS011;10284;58.364;15.550;2022-09-21T03:44:39;0.93;;;0.90;;
20251;SDS011;10284;58.364;15.550;2022-09-21T03:47:05;1.52;;;0.93;;
20251;SDS011;10284;58.364;15.550;2022-09-21T03:49:31;3.80;;;1.20;;
20251;SDS011;10284;58.364;15.550;2022-09-21T03:51:58;1.20;;;1.10;;
20251;SDS011;10284;58.364;15.550;2022-09-21T03:54:23;2.15;;;1.08;;
20251;SDS011;10284;58.364;15.550;2022-09-21T03:56:50;1.00;;;1.00;;
20251;SDS011;10284;58.364;15.550;2022-09-21T03:59:15;3.03;;;1.08;;
20251;SDS011;10284;58.364;15.550;2022-09-21T04:01:41;2.40;;;1.10;;
20251;SDS011;10284;58.364;15.550;2022-09-21T04:04:07;2.45;;;0.90;;
20251;SDS011;10284;58.364;15.550;2022-09-21T04:06:33;2.08;;;1.00;;
20251;SDS011;10284;58.364;15.550;2022-09-21T04:08:58;6.78;;;1.25;;
20251;SDS011;10284;58.364;15.550;2022-09-21T04:11:27;4.47;;;1.27;;
20251;SDS011;10284;58.364;15.550;2022-09-21T04:13:53;1.50;;;1.00;;
20251;SDS011;10284;58.364;15.550;2022-09-21T04:16:24;1.05;;;1.00;;
20251;SDS011;10284;58.364;15.550;2022-09-21T04:18:50;1.63;;;1.30;;
20251;SDS011;10284;58.364;15.550;2022-09-21T04:21:16;1.88;;;0.98;;
20251;SDS011;10284;58.364;15.550;2022-09-21T04:23:42;1.10;;;1.00;;
20251;SDS011;10284;58.364;15.550;2022-09-21T04:26:19;0.95;;;0.80;;
20251;SDS011;10284;58.364;15.550;2022-09-21T04:28:49;0.90;;;0.90;;
20251;SDS011;10284;58.364;15.550;2022-09-21T04:31:15;3.05;;;0.90;;
20251;SDS011;10284;58.364;15.550;2022-09-21T04:33:40;1.35;;;1.10;;
20251;SDS011;10284;58.364;15.550;2022-09-21T04:36:06;1.13;;;1.00;;
20251;SDS011;10284;58.364;15.550;2022-09-21T04:38:31;1.55;;;1.00;;
20251;SDS011;10284;58.364;15.550;2022-09-21T04:40:57;1.27;;;0.90;;
20251;SDS011;10284;58.364;15.550;2022-09-21T04:43:23;3.42;;;1.25;;
20251;SDS011;10284;58.364;15.550;2022-09-21T04:45:48;1.33;;;1.08;;
20251;SDS011;10284;58.364;15.550;2022-09-21T04:48:13;2.15;;;0.90;;
20251;SDS011;10284;58.364;15.550;2022-09-21T04:50:39;2.42;;;1.05;;
20251;SDS011;10284;58.364;15.550;2022-09-21T04:53:04;4.05;;;1.10;;
20251;SDS011;10284;58.364;15.550;2022-09-21T04:55:30;1.10;;;1.00;;
20251;SDS011;10284;58.364;15.550;2022-09-21T04:57:55;1.38;;;0.80;;
20251;SDS011;10284;58.364;15.550;2022-09-21T05:00:21;0.90;;;0.90;;
20251;SDS011;10284;58.364;15.550;2022-09-21T05:02:46;1.38;;;1.13;;
20251;SDS011;10284;58.364;15.550;2022-09-21T05:05:12;3.17;;;0.98;;
20251;SDS011;10284;58.364;15.550;2022-09-21T05:07:37;2.20;;;1.10;;
20251;SDS011;10284;58.364;15.550;2022-09-21T05:10:03;2.22;;;1.00;;
20251;SDS011;10284;58.364;15.550;2022-09-21T05:12:29;3.78;;;1.05;;
20251;SDS011;10284;58.364;15.550;2022-09-21T05:14:55;1.55;;;0.93;;
20251;SDS011;10284;58.364;15.550;2022-09-21T05:17:21;1.00;;;0.88;;
20251;SDS011;10284;58.364;15.550;2022-09-21T05:19:50;1.10;;;1.00;;
20251;SDS011;10284;58.364;15.550;2022-09-21T05:22:16;3.55;;;1.20;;
20251;SDS011;10284;58.364;15.550;2022-09-21T05:24:41;5.05;;;1.42;;
20251;SDS011;10284;58.364;15.550;2022-09-21T05:27:07;2.65;;;1.10;;
20251;SDS011;10284;58.364;15.550;2022-09-21T05:29:33;1.38;;;1.00;;
20251;SDS011;10284;58.364;15.550;2022-09-21T05:32:12;4.65;;;1.00;;
20251;SDS011;10284;58.364;15.550;2022-09-21T05:40:25;3.33;;;1.08;;
20251;SDS011;10284;58.364;15.550;2022-09-21T05:42:51;2.08;;;0.88;;
20251;SDS011;10284;58.364;15.550;2022-09-21T05:45:17;1.73;;;1.08;;
20251;SDS011;10284;58.364;15.550;2022-09-21T05:55:47;7.07;;;1.45;;
20251;SDS011;10284;58.364;15.550;2022-09-21T06:01:18;1.38;;;0.95;;
20251;SDS011;10284;58.364;15.550;2022-09-21T06:04:03;4.55;;;1.30;;
20251;SDS011;10284;58.364;15.550;2022-09-21T06:06:28;2.10;;;1.30;;
20251;SDS011;10284;58.364;15.550;2022-09-21T06:08:54;2.35;;;1.00;;
20251;SDS011;10284;58.364;15.550;2022-09-21T06:11:19;1.90;;;1.13;;
20251;SDS011;10284;58.364;15.550;2022-09-21T06:13:44;1.13;;;1.02;;
20251;SDS011;10284;58.364;15.550;2022-09-21T06:16:10;1.98;;;1.05;;
20251;SDS011;10284;58.364;15.550;2022-09-21T06:18:37;2.20;;;1.17;;
20251;SDS011;10284;58.364;15.550;2022-09-21T06:21:04;1.67;;;1.20;;
20251;SDS011;10284;58.364;15.550;2022-09-21T06:23:30;2.72;;;1.10;;
20251;SDS011;10284;58.364;15.550;2022-09-21T06:25:55;1.65;;;1.10;;
20251;SDS011;10284;58.364;15.550;2022-09-21T06:28:21;2.70;;;1.20;;
20251;SDS011;10284;58.364;15.550;2022-09-21T06:30:50;1.73;;;1.00;;
20251;SDS011;10284;58.364;15.550;2022-09-21T06:33:16;3.25;;;1.52;;
20251;SDS011;10284;58.364;15.550;2022-09-21T06:35:50;1.00;;;0.90;;
20251;SDS011;10284;58.364;15.550;2022-09-21T06:38:19;1.60;;;1.33;;
20251;SDS011;10284;58.364;15.550;2022-09-21T06:40:44;1.75;;;1.30;;
20251;SDS011;10284;58.364;15.550;2022-09-21T06:43:09;1.13;;;1.00;;
20251;SDS011;10284;58.364;15.550;2022-09-21T06:45:35;1.10;;;1.00;;
20251;SDS011;10284;58.364;15.550;2022-09-21T06:48:00;1.65;;;1.00;;
20251;SDS011;10284;58.364;15.550;2022-09-21T06:50:26;2.70;;;1.10;;
20251;SDS011;10284;58.364;15.550;2022-09-21T06:52:51;1.20;;;1.00;;
20251;SDS011;10284;58.364;15.550;2022-09-21T06:55:17;1.58;;;0.95;;
20251;SDS011;10284;58.364;15.550;2022-09-21T06:57:42;6.20;;;1.13;;
20251;SDS011;10284;58.364;15.550;2022-09-21T07:00:09;1.15;;;0.88;;
20251;SDS011;10284;58.364;15.550;2022-09-21T07:02:35;1.38;;;0.93;;
20251;SDS011;10284;58.364;15.550;2022-09-21T07:05:01;6.65;;;1.55;;
20251;SDS011;10284;58.364;15.550;2022-09-21T07:07:26;4.05;;;1.80;;
20251;SDS011;10284;58.364;15.550;2022-09-21T07:09:54;3.92;;;1.00;;
20251;SDS011;10284;58.364;15.550;2022-09-21T07:12:19;3.67;;;1.00;;
20251;SDS011;10284;58.364;15.550;2022-09-21T07:14:45;2.85;;;0.80;;
20251;SDS011;10284;58.364;15.550;2022-09-21T07:17:10;2.85;;;1.20;;
20251;SDS011;10284;58.364;15.550;2022-09-21T07:19:37;2.75;;;1.00;;
20251;SDS011;10284;58.364;15.550;2022-09-21T07:22:02;1.17;;;0.80;;
20251;SDS011;10284;58.364;15.550;2022-09-21T07:24:28;2.28;;;1.00;;
20251;SDS011;10284;58.364;15.550;2022-09-21T07:26:53;3.13;;;0.90;;
20251;SDS011;10284;58.364;15.550;2022-09-21T07:29:19;1.45;;;0.73;;
20251;SDS011;10284;58.364;15.550;2022-09-21T07:31:44;1.00;;;0.70;;
20251;SDS011;10284;58.364;15.550;2022-09-21T07:34:10;3.42;;;0.90;;
20251;SDS011;10284;58.364;15.550;2022-09-21T07:36:35;2.03;;;1.00;;
20251;SDS011;10284;58.364;15.550;2022-09-21T07:39:01;3.05;;;0.82;;
20251;SDS011;10284;58.364;15.550;2022-09-21T07:41:27;2.63;;;0.80;;
20251;SDS011;10284;58.364;15.550;2022-09-21T07:43:52;3.10;;;1.08;;
20251;SDS011;10284;58.364;15.550;2022-09-21T07:46:18;1.15;;;0.80;;
20251;SDS011;10284;58.364;15.550;2022-09-21T07:48:44;0.52;;;0.52;;
20251;SDS011;10284;58.364;15.550;2022-09-21T07:51:11;1.48;;;0.60;;
20251;SDS011;10284;58.364;15.550;2022-09-21T07:53:38;0.80;;;0.70;;
20251;SDS011;10284;58.364;15.550;2022-09-21T07:56:06;2.17;;;0.77;;
20251;SDS011;10284;58.364;15.550;2022-09-21T07:58:37;0.85;;;0.73;;
20251;SDS011;10284;58.364;15.550;2022-09-21T08:01:21;0.80;;;0.80;;
20251;SDS011;10284;58.364;15.550;2022-09-21T08:03:47;2.28;;;0.70;;
20251;SDS011;10284;58.364;15.550;2022-09-21T08:06:16;1.08;;;0.60;;
20251;SDS011;10284;58.364;15.550;2022-09-21T08:08:42;1.90;;;0.80;;
20251;SDS011;10284;58.364;15.550;2022-09-21T08:11:08;1.33;;;0.65;;
20251;SDS011;10284;58.364;15.550;2022-09-21T08:13:35;0.90;;;0.50;;
20251;SDS011;10284;58.364;15.550;2022-09-21T08:16:02;1.42;;;0.75;;
20251;SDS011;10284;58.364;15.550;2022-09-21T08:18:28;1.15;;;0.70;;
20251;SDS011;10284;58.364;15.550;2022-09-21T08:20:54;1.77;;;0.63;;
20251;SDS011;10284;58.364;15.550;2022-09-21T08:23:20;1.13;;;0.63;;
20251;SDS011;10284;58.364;15.550;2022-09-21T08:25:46;1.83;;;0.80;;
20251;SDS011;10284;58.364;15.550;2022-09-21T08:28:12;1.30;;;0.68;;
20251;SDS011;10284;58.364;15.550;2022-09-21T08:30:38;0.98;;;0.60;;
20251;SDS011;10284;58.364;15.550;2022-09-21T08:33:04;2.35;;;0.60;;
20251;SDS011;10284;58.364;15.550;2022-09-21T08:35:31;3.85;;;0.68;;
20251;SDS011;10284;58.364;15.550;2022-09-21T08:37:56;1.95;;;0.52;;
20251;SDS011;10284;58.364;15.550;2022-09-21T08:40:22;3.17;;;0.70;;
20251;SDS011;10284;58.364;15.550;2022-09-21T08:42:54;0.68;;;0.68;;
20251;SDS011;10284;58.364;15.550;2022-09-21T08:45:24;1.67;;;0.60;;
20251;SDS011;10284;58.364;15.550;2022-09-21T08:47:56;2.45;;;0.68;;
20251;SDS011;10284;58.364;15.550;2022-09-21T08:50:30;3.60;;;0.80;;
20251;SDS011;10284;58.364;15.550;2022-09-21T08:56:12;0.85;;;0.70;;
20251;SDS011;10284;58.364;15.550;2022-09-21T08:58:38;1.63;;;0.80;;
20251;SDS011;10284;58.364;15.550;2022-09-21T09:04:02;1.10;;;0.68;;
20251;SDS011;10284;58.364;15.550;2022-09-21T09:09:27;3.08;;;0.75;;
20251;SDS011;10284;58.364;15.550;2022-09-21T09:19:55;2.15;;;0.80;;
20251;SDS011;10284;58.364;15.550;2022-09-21T09:22:35;0.90;;;0.63;;
20251;SDS011;10284;58.364;15.550;2022-09-21T09:25:03;3.55;;;0.93;;
20251;SDS011;10284;58.364;15.550;2022-09-21T09:27:40;2.25;;;1.05;;
20251;SDS011;10284;58.364;15.550;2022-09-21T09:35:25;0.80;;;0.70;;
20251;SDS011;10284;58.364;15.550;2022-09-21T09:37:57;1.50;;;0.60;;
20251;SDS011;10284;58.364;15.550;2022-09-21T09:40:43;1.00;;;0.60;;
20251;SDS011;10284;58.364;15.550;2022-09-21T09:51:34;0.73;;;0.50;;
20251;SDS011;10284;58.364;15.550;2022-09-21T09:54:04;0.70;;;0.40;;
20251;SDS011;10284;58.364;15.550;2022-09-21T09:56:30;0.75;;;0.40;;
20251;SDS011;10284;58.364;15.550;2022-09-21T09:58:57;0.40;;;0.32;;
20251;SDS011;10284;58.364;15.550;2022-09-21T10:01:45;0.85;;;0.52;;
20251;SDS011;10284;58.364;15.550;2022-09-21T10:04:15;0.60;;;0.50;;
20251;SDS011;10284;58.364;15.550;2022-09-21T10:06:43;1.33;;;0.40;;
20251;SDS011;10284;58.364;15.550;2022-09-21T10:11:50;0.55;;;0.40;;
20251;SDS011;10284;58.364;15.550;2022-09-21T10:14:18;1.23;;;0.40;;
20251;SDS011;10284;58.364;15.550;2022-09-21T10:16:45;4.13;;;0.47;;
20251;SDS011;10284;58.364;15.550;2022-09-21T10:19:22;2.20;;;0.45;;
20251;SDS011;10284;58.364;15.550;2022-09-21T10:21:56;0.63;;;0.47;;
20251;SDS011;10284;58.364;15.550;2022-09-21T10:24:30;2.35;;;0.50;;
20251;SDS011;10284;58.364;15.550;2022-09-21T10:29:40;0.55;;;0.40;;
20251;SDS011;10284;58.364;15.550;2022-09-21T10:34:38;0.30;;;0.30;;
20251;SDS011;10284;58.364;15.550;2022-09-21T10:39:49;1.75;;;0.47;;
20251;SDS011;10284;58.364;15.550;2022-09-21T10:42:16;0.40;;;0.40;;
20251;SDS011;10284;58.364;15.550;2022-09-21T10:44:44;3.25;;;0.30;;
20251;SDS011;10284;58.364;15.550;2022-09-21T10:50:02;0.73;;;0.50;;
20251;SDS011;10284;58.364;15.550;2022-09-21T10:52:40;0.80;;;0.40;;
20251;SDS011;10284;58.364;15.550;2022-09-21T10:55:06;0.45;;;0.32;;
20251;SDS011;10284;58.364;15.550;2022-09-21T10:57:40;0.47;;;0.30;;
20251;SDS011;10284;58.364;15.550;2022-09-21T11:00:11;0.60;;;0.40;;
20251;SDS011;10284;58.364;15.550;2022-09-21T11:02:45;0.73;;;0.40;;
20251;SDS011;10284;58.364;15.550;2022-09-21T11:07:51;0.25;;;0.20;;
20251;SDS011;10284;58.364;15.550;2022-09-21T11:21:34;0.20;;;0.20;;
20251;SDS011;10284;58.364;15.550;2022-09-21T11:27:09;0.40;;;0.40;;
20251;SDS011;10284;58.364;15.550;2022-09-21T11:29:54;1.55;;;0.47;;
20251;SDS011;10284;58.364;15.550;2022-09-21T11:49:09;0.30;;;0.30;;
20251;SDS011;10284;58.364;15.550;2022-09-21T12:10:37;1.08;;;0.40;;
20251;SDS011;10284;58.364;15.550;2022-09-21T12:15:58;0.47;;;0.47;;
20251;SDS011;10284;58.364;15.550;2022-09-21T12:21:14;1.10;;;0.50;;
20251;SDS011;10284;58.364;15.550;2022-09-21T12:23:46;1.17;;;0.30;;
20251;SDS011;10284;58.364;15.550;2022-09-21T12:26:26;0.75;;;0.30;;
20251;SDS011;10284;58.364;15.550;2022-09-21T12:29:00;0.35;;;0.25;;
20251;SDS011;10284;58.364;15.550;2022-09-21T12:31:38;1.80;;;0.30;;
20251;SDS011;10284;58.364;15.550;2022-09-21T12:34:23;0.88;;;0.40;;
20251;SDS011;10284;58.364;15.550;2022-09-21T12:42:29;0.98;;;0.40;;
20251;SDS011;10284;58.364;15.550;2022-09-21T12:45:41;1.67;;;0.40;;
20251;SDS011;10284;58.364;15.550;2022-09-21T12:51:01;1.00;;;0.40;;
20251;SDS011;10284;58.364;15.550;2022-09-21T12:53:47;0.70;;;0.30;;
20251;SDS011;10284;58.364;15.550;2022-09-21T13:01:36;1.23;;;0.30;;
20251;SDS011;10284;58.364;15.550;2022-09-21T13:09:54;0.20;;;0.20;;
20251;SDS011;10284;58.364;15.550;2022-09-21T13:12:41;0.25;;;0.25;;
20251;SDS011;10284;58.364;15.550;2022-09-21T13:15:12;3.13;;;0.20;;
20251;SDS011;10284;58.364;15.550;2022-09-21T13:17:41;1.38;;;0.30;;
20251;SDS011;10284;58.364;15.550;2022-09-21T13:20:14;0.35;;;0.30;;
20251;SDS011;10284;58.364;15.550;2022-09-21T13:22:42;0.40;;;0.40;;
20251;SDS011;10284;58.364;15.550;2022-09-21T13:25:18;0.68;;;0.25;;
20251;SDS011;10284;58.364;15.550;2022-09-21T13:30:28;0.30;;;0.30;;
20251;SDS011;10284;58.364;15.550;2022-09-21T13:43:59;2.72;;;0.20;;
20251;SDS011;10284;58.364;15.550;2022-09-21T13:54:32;0.20;;;0.20;;
20251;SDS011;10284;58.364;15.550;2022-09-21T13:57:04;0.22;;;0.10;;
20251;SDS011;10284;58.364;15.550;2022-09-21T14:10:40;0.10;;;0.10;;
20251;SDS011;10284;58.364;15.550;2022-09-21T14:14:00;1.13;;;0.10;;
20251;SDS011;10284;58.364;15.550;2022-09-21T14:27:27;0.30;;;0.20;;
20251;SDS011;10284;58.364;15.550;2022-09-21T14:29:59;0.15;;;0.15;;
20251;SDS011;10284;58.364;15.550;2022-09-21T14:32:28;0.10;;;0.10;;
20251;SDS011;10284;58.364;15.550;2022-09-21T14:35:04;0.10;;;0.10;;
20251;SDS011;10284;58.364;15.550;2022-09-21T14:37:36;0.40;;;0.20;;
20251;SDS011;10284;58.364;15.550;2022-09-21T14:40:47;0.17;;;0.17;;
20251;SDS011;10284;58.364;15.550;2022-09-21T14:43:00;1.27;;;0.22;;
20251;SDS011;10284;58.364;15.550;2022-09-21T15:00:21;0.20;;;0.20;;
20251;SDS011;10284;58.364;15.550;2022-09-21T15:05:57;0.32;;;0.10;;
20251;SDS011;10284;58.364;15.550;2022-09-21T15:09:01;0.20;;;0.20;;
20251;SDS011;10284;58.364;15.550;2022-09-21T15:12:04;0.20;;;0.20;;
20251;SDS011;10284;58.364;15.550;2022-09-21T15:17:22;0.45;;;0.20;;
20251;SDS011;10284;58.364;15.550;2022-09-21T15:19:56;0.32;;;0.20;;
20251;SDS011;10284;58.364;15.550;2022-09-21T15:22:23;0.20;;;0.13;;
20251;SDS011;10284;58.364;15.550;2022-09-21T15:24:52;0.15;;;0.15;;
20251;SDS011;10284;58.364;15.550;2022-09-21T15:27:20;0.30;;;0.20;;
20251;SDS011;10284;58.364;15.550;2022-09-21T15:29:48;0.15;;;0.15;;
20251;SDS011;10284;58.364;15.550;2022-09-21T15:35:00;0.88;;;0.10;;
20251;SDS011;10284;58.364;15.550;2022-09-21T15:37:28;0.30;;;0.30;;
20251;SDS011;10284;58.364;15.550;2022-09-21T15:39:58;0.60;;;0.20;;
20251;SDS011;10284;58.364;15.550;2022-09-21T15:42:27;0.20;;;0.20;;
20251;SDS011;10284;58.364;15.550;2022-09-21T15:45:00;1.67;;;0.40;;
20251;SDS011;10284;58.364;15.550;2022-09-21T15:47:34;0.30;;;0.30;;
20251;SDS011;10284;58.364;15.550;2022-09-21T15:50:01;0.52;;;0.40;;
20251;SDS011;10284;58.364;15.550;2022-09-21T15:52:35;0.30;;;0.30;;
20251;SDS011;10284;58.364;15.550;2022-09-21T15:55:15;0.43;;;0.20;;
20251;SDS011;10284;58.364;15.550;2022-09-21T15:57:51;0.20;;;0.20;;
20251;SDS011;10284;58.364;15.550;2022-09-21T16:05:28;0.57;;;0.25;;
20251;SDS011;10284;58.364;15.550;2022-09-21T16:08:18;0.45;;;0.38;;
20251;SDS011;10284;58.364;15.550;2022-09-21T16:10:46;0.40;;;0.40;;
20251;SDS011;10284;58.364;15.550;2022-09-21T16:13:21;0.32;;;0.30;;
20251;SDS011;10284;58.364;15.550;2022-09-21T16:16:12;1.67;;;0.40;;
20251;SDS011;10284;58.364;15.550;2022-09-21T16:21:12;1.10;;;0.50;;
20251;SDS011;10284;58.364;15.550;2022-09-21T16:23:39;0.65;;;0.30;;
20251;SDS011;10284;58.364;15.550;2022-09-21T16:26:04;4.03;;;0.60;;
20251;SDS011;10284;58.364;15.550;2022-09-21T16:28:39;4.55;;;0.40;;
20251;SDS011;10284;58.364;15.550;2022-09-21T16:38:46;1.00;;;0.32;;
20251;SDS011;10284;58.364;15.550;2022-09-21T16:41:12;2.42;;;0.57;;
20251;SDS011;10284;58.364;15.550;2022-09-21T16:43:38;1.33;;;0.50;;
20251;SDS011;10284;58.364;15.550;2022-09-21T16:46:07;2.35;;;0.38;;
20251;SDS011;10284;58.364;15.550;2022-09-21T16:48:32;0.93;;;0.50;;
20251;SDS011;10284;58.364;15.550;2022-09-21T16:50:58;2.72;;;0.73;;
20251;SDS011;10284;58.364;15.550;2022-09-21T16:53:23;3.33;;;0.52;;
20251;SDS011;10284;58.364;15.550;2022-09-21T16:55:51;3.83;;;0.57;;
20251;SDS011;10284;58.364;15.550;2022-09-21T16:58:17;4.53;;;0.57;;
20251;SDS011;10284;58.364;15.550;2022-09-21T17:00:45;6.20;;;1.10;;
20251;SDS011;10284;58.364;15.550;2022-09-21T17:03:12;5.45;;;1.13;;
20251;SDS011;10284;58.364;15.550;2022-09-21T17:05:40;5.65;;;0.77;;
20251;SDS011;10284;58.364;15.550;2022-09-21T17:08:07;4.30;;;0.90;;
20251;SDS011;10284;58.364;15.550;2022-09-21T17:10:35;1.95;;;0.50;;
20251;SDS011;10284;58.364;15.550;2022-09-21T17:13:02;5.75;;;0.70;;
20251;SDS011;10284;58.364;15.550;2022-09-21T17:15:33;6.22;;;0.85;;
20251;SDS011;10284;58.364;15.550;2022-09-21T17:18:00;11.68;;;0.60;;
20251;SDS011;10284;58.364;15.550;2022-09-21T17:22:58;4.75;;;0.60;;
20251;SDS011;10284;58.364;15.550;2022-09-21T17:25:26;2.95;;;0.73;;
20251;SDS011;10284;58.364;15.550;2022-09-21T17:27:52;7.93;;;0.40;;
20251;SDS011;10284;58.364;15.550;2022-09-21T17:30:17;4.63;;;0.52;;
20251;SDS011;10284;58.364;15.550;2022-09-21T17:32:45;4.25;;;0.50;;
20251;SDS011;10284;58.364;15.550;2022-09-21T17:35:15;1.15;;;0.40;;
20251;SDS011;10284;58.364;15.550;2022-09-21T17:37:43;4.13;;;0.60;;
20251;SDS011;10284;58.364;15.550;2022-09-21T17:40:09;2.95;;;0.50;;
20251;SDS011;10284;58.364;15.550;2022-09-21T17:42:40;1.80;;;0.55;;
20251;SDS011;10284;58.364;15.550;2022-09-21T17:47:49;3.38;;;0.70;;
20251;SDS011;10284;58.364;15.550;2022-09-21T17:50:19;4.95;;;0.90;;
20251;SDS011;10284;58.364;15.550;2022-09-21T17:52:51;0.98;;;0.77;;
20251;SDS011;10284;58.364;15.550;2022-09-21T17:55:38;2.72;;;1.05;;
20251;SDS011;10284;58.364;15.550;2022-09-21T17:58:09;3.40;;;0.95;;
20251;SDS011;10284;58.364;15.550;2022-09-21T18:05:49;1.83;;;0.60;;
20251;SDS011;10284;58.364;15.550;2022-09-21T18:08:15;3.15;;;0.85;;
20251;SDS011;10284;58.364;15.550;2022-09-21T18:10:43;1.73;;;0.68;;
20251;SDS011;10284;58.364;15.550;2022-09-21T18:13:22;4.03;;;0.43;;
20251;SDS011;10284;58.364;15.550;2022-09-21T18:26:35;1.35;;;0.40;;
20251;SDS011;10284;58.364;15.550;2022-09-21T18:29:04;1.40;;;0.60;;
20251;SDS011;10284;58.364;15.550;2022-09-21T18:31:40;0.80;;;0.60;;
20251;SDS011;10284;58.364;15.550;2022-09-21T18:36:41;0.93;;;0.60;;
20251;SDS011;10284;58.364;15.550;2022-09-21T18:44:45;0.80;;;0.80;;
20251;SDS011;10284;58.364;15.550;2022-09-21T18:55:29;1.10;;;0.80;;
20251;SDS011;10284;58.364;15.550;2022-09-21T18:57:57;2.78;;;0.70;;
20251;SDS011;10284;58.364;15.550;2022-09-21T19:00:24;0.60;;;0.60;;
20251;SDS011;10284;58.364;15.550;2022-09-21T19:02:55;0.95;;;0.70;;
20251;SDS011;10284;58.364;15.550;2022-09-21T19:05:24;1.08;;;0.55;;
20251;SDS011;10284;58.364;15.550;2022-09-21T19:10:50;3.45;;;0.70;;
20251;SDS011;10284;58.364;15.550;2022-09-21T19:21:04;1.85;;;0.60;;
20251;SDS011;10284;58.364;15.550;2022-09-21T19:23:43;3.28;;;0.82;;
20251;SDS011;10284;58.364;15.550;2022-09-21T19:31:54;0.95;;;0.80;;
20251;SDS011;10284;58.364;15.550;2022-09-21T19:34:20;1.77;;;0.90;;
20251;SDS011;10284;58.364;15.550;2022-09-21T19:36:46;1.85;;;1.00;;
20251;SDS011;10284;58.364;15.550;2022-09-21T19:39:11;2.33;;;1.00;;
20251;SDS011;10284;58.364;15.550;2022-09-21T19:47:16;3.63;;;0.88;;
20251;SDS011;10284;58.364;15.550;2022-09-21T19:49:50;1.25;;;0.70;;
20251;SDS011;10284;58.364;15.550;2022-09-21T19:52:23;1.48;;;0.70;;
20251;SDS011;10284;58.364;15.550;2022-09-21T19:54:53;0.95;;;0.50;;
20251;SDS011;10284;58.364;15.550;2022-09-21T19:57:37;1.85;;;0.60;;
20251;SDS011;10284;58.364;15.550;2022-09-21T20:00:22;0.65;;;0.52;;